HOURLY OBS INDEX

001

Kimberley - north

DOONGAN ASA

Site: 001036
Alt: 383.5m
126km SSW of KALUMBURU


  Time     Wind        Temp  DP   Baro     Rain since   Rain past  Vis(m), Cloud(base in m), Weather
  local        km/h                         9am  last   hr   10m    
Wed 14:00  ------/--- --------  1009.8   ----  ----  ----  ----   ----- 
Wed 14:30  ------/--- --------  1009.3   ----  ----  ----  ----   ----- 
Wed 15:00  ------/--- --------  1009.1   ----  ----  ----  ----   ----- 
Wed 15:30  ------/--- --------  1009.0   ----  ----  ----  ----   ----- 
Wed 16:00  ------/--- --------  1008.9   ----  ----  ----  ----   ----- 
Wed 16:30  ------/--- --------  1009.3   ----  ----  ----  ----   ----- 
Wed 17:00  ------/--- --------  1009.5   ----  ----  ----  ----   ----- 
Wed 17:30  ------/--- --------  1009.8   ----  ----  ----  ----   ----- 
Wed 18:00  ------/--- --------  1010.3   ----  ----  ----  ----   ----- 
Wed 18:30  ------/--- --------  1010.9   ----  ----  ----  ----   ----- 
Wed 19:00  ------/--- --------  1011.4   ----  ----  ----  ----   ----- 

KALUMBURU

Site: 001019
Alt: 23.0m
0.0km ESE of KALUMBURU


  Time     Wind        Temp  DP   Baro     Rain since   Rain past  Vis(m), Cloud(base in m), Weather
  local        km/h                         9am  last   hr   10m    
Wed 14:00    N 24/ 37  34.6 13.4  1008.0    0.0   0.0   0.0   0.0   ----- 
Wed 14:30    N 24/ 39  34.0 14.0  1007.8    0.0   0.0   0.0   0.0   ----- 
Wed 15:00    N 26/ 41  33.3 12.3  1007.8    0.0   0.0   0.0   0.0   ----- 
Wed 15:30    N 26/ 39  32.7 11.8  1007.9    0.0   0.0   0.0   0.0   ----- 
Wed 16:00  NNW 19/ 30  32.8 11.9  1008.0    0.0   0.0   0.0   0.0   ----- 
Wed 16:30  NNW 20/ 30  31.7 12.0  1008.2    0.0   0.0   0.0   0.0   ----- 
Wed 17:00  NNW 19/ 28  30.7 12.6  1008.6    0.0   0.0   0.0   0.0   ----- 
Wed 17:30  NNW  9/ 15  29.5 12.4  1009.1    0.0   0.0   0.0   0.0   ----- 
Wed 18:00  NNW  9/ 13  28.5 14.3  1009.6    0.0   0.0   0.0   0.0   ----- 
Wed 18:30    N  9/ 13  27.5 15.8  1010.3    0.0   0.0   0.0   0.0   ----- 
Wed 19:00    N  9/ 13  27.3 17.2  1010.7    0.0   0.0   0.0   0.0   ----- 

TROUGHTON ISLAND

Site: 001007
Alt: 6.0m
80km NW of KALUMBURU


  Time     Wind        Temp  DP   Baro     Rain since   Rain past  Vis(m), Cloud(base in m), Weather
  local        km/h                         9am  last   hr   10m    
Wed 14:00   NW 20/ 26  31.1 21.0  1009.7    0.0   0.0   0.0   0.0   ----- 
Wed 14:30   NW 22/ 28  30.9 19.6  1009.5    0.0   0.0   0.0   0.0   ----- 
Wed 15:00   NW 24/ 30  30.7 19.7  1009.5    0.0   0.0   0.0   0.0   ----- 
Wed 15:30   NW 24/ 30  30.4 20.3  1009.3    0.0   0.0   0.0   0.0   ----- 
Wed 16:00   NW 26/ 32  29.8 19.5  1009.2    0.0   0.0   0.0   0.0   ----- 
Wed 16:30   NW 28/ 35  29.1 20.3  1009.2    0.0   0.0   0.0   0.0   ----- 
Wed 17:00   NW 28/ 33  28.4 21.2  1009.7    0.0   0.0   0.0   0.0   ----- 
Wed 17:30  WNW 28/ 32  28.0 22.5  1009.7    0.0   0.0   0.0   0.0   ----- 
Wed 18:00   NW 24/ 30  27.7 22.4  1010.2    0.0   0.0   0.0   0.0   ----- 
Wed 18:30   NW 22/ 28  27.6 22.8  1010.6    0.0   0.0   0.0   0.0   ----- 
Wed 19:00   NW 22/ 26  27.3 23.3  1011.0    0.0   0.0   0.0   0.0   ----- 

TRUSCOTT

Site: 001020
Alt: 51.0m
36km NW of KALUMBURU


  Time     Wind        Temp  DP   Baro     Rain since   Rain past  Vis(m), Cloud(base in m), Weather
  local        km/h                         9am  last   hr   10m    
Wed 14:00  NNW 20/ 30  32.5 10.5  1008.7    0.0   0.0   0.0   0.0   10000 
Wed 14:30  NNW 22/ 33  31.6  9.8  1008.4    0.0   0.0   0.0   0.0   10000 
Wed 15:00   NW 22/ 35  30.9 13.2  1008.2    0.0   0.0   0.0   0.0   10000 
Wed 15:30  NNW 20/ 32  30.2 15.9  1008.3    0.0   0.0   0.0   0.0   10000 
Wed 16:00  NNW 19/ 30  30.0 15.7  1008.4    0.0   0.0   0.0   0.0   10000 
Wed 16:30   NW 17/ 30  29.5 16.3  1008.6    0.0   0.0   0.0   0.0   10000 
Wed 17:00  NNW 15/ 24  28.6 17.8  1009.0    0.0   0.0   0.0   0.0   10000 
Wed 17:30   NW 13/ 22  28.1 17.0  1009.3    0.0   0.0   0.0   0.0   10000 
Wed 18:00  WNW 13/ 20  28.1 16.4  1009.5    0.0   0.0   0.0   0.0   10000 
Wed 18:30  WNW 13/ 20  27.7 16.9  1010.0    0.0   0.0   0.0   0.0   10000 
Wed 19:00   NW  9/ 15  27.2 17.7  1010.6    0.0   0.0   0.0   0.0   10000 

WYNDHAM AERO

Site: 001006
Alt: 3.8m
4km SE of WYNDHAM


  Time     Wind        Temp  DP   Baro     Rain since   Rain past  Vis(m), Cloud(base in m), Weather
  local        km/h                         9am  last   hr   10m    
Wed 14:00    W 13/ 19  38.3  9.0  1006.8    0.0   0.0   0.0   0.0   ----- 
Wed 14:30  WNW 15/ 20  38.2  8.9  1006.5    0.0   0.0   0.0   0.0   ----- 
Wed 15:00    W 13/ 20  37.6  8.4  1006.2    0.0   0.0   0.0   0.0   ----- 
Wed 15:30    N 20/ 26  36.7  9.3  1006.4    0.0   0.0   0.0   0.0   ----- 
Wed 16:00  NNW 17/ 28  36.1 12.3  1006.3    0.0   0.0   0.0   0.0   ----- 
Wed 16:30    N 22/ 28  34.8 12.5  1006.6    0.0   0.0   0.0   0.0   ----- 
Wed 17:00    N 22/ 30  33.4 11.9  1006.8    0.0   0.0   0.0   0.0   ----- 
Wed 17:30    N 22/ 33  32.0 12.8  1007.4    0.0   0.0   0.0   0.0   ----- 
Wed 18:00    N 32/ 45  31.0 12.8  1008.0    0.0   0.0   0.0   0.0   ----- 
Wed 18:30    N 32/ 45  30.3 14.0  1008.5    0.0   0.0   0.0   0.0   ----- 
Wed 19:00    N 30/ 43  29.6 15.7  1009.0    0.0   0.0   0.0   0.0   ----- 
Wed 19:03    N 32/ 50  29.5 15.6  1009.0    0.0   0.0  ----   0.0   -----